Time;durP1;ratioP1;P1;durP2;ratioP2;P2;SDS_P1;SDS_P2;PMS_P1;PMS_P2;Temp;Humidity;BMP_temperature;BMP_pressure;BME280_temperature;BME280_humidity;BME280_pressure;Samples;Min_cycle;Max_cycle;Signal;HPM_P1;HPM_P2
2021/04/24 00:00:05;;;;;;;8.80;5.13;;;;;;;;;;5075170;28;20482;-64
2021/04/24 00:02:31;;;;;;;10.93;4.13;;;;;;;;;;5074372;28;20420;-64
2021/04/24 00:04:58;;;;;;;10.40;4.50;;;;;;;;;;5074336;28;20533;-64
2021/04/24 00:07:24;;;;;;;11.63;5.90;;;;;;;;;;5074245;28;20420;-64
2021/04/24 00:09:50;;;;;;;6.30;4.80;;;;;;;;;;5075055;28;20412;-64
2021/04/24 00:12:16;;;;;;;9.73;4.23;;;;;;;;;;5073945;28;20425;-64
2021/04/24 00:14:42;;;;;;;13.03;4.57;;;;;;;;;;5075153;28;20457;-64
2021/04/24 00:17:08;;;;;;;13.37;4.97;;;;;;;;;;5071696;28;20429;-64
2021/04/24 00:19:34;;;;;;;11.43;4.80;;;;;;;;;;5075076;28;20818;-64
2021/04/24 00:22:00;;;;;;;8.80;5.47;;;;;;;;;;5074101;28;20448;-63
2021/04/24 00:24:26;;;;;;;9.90;4.67;;;;;;;;;;5074011;28;20486;-64
2021/04/24 00:26:53;;;;;;;5.50;4.40;;;;;;;;;;5073695;28;20431;-64
2021/04/24 00:29:19;;;;;;;7.00;4.20;;;;;;;;;;5074962;28;20456;-64
2021/04/24 00:31:45;;;;;;;8.20;4.23;;;;;;;;;;5073585;28;20452;-64
2021/04/24 00:34:11;;;;;;;12.27;4.90;;;;;;;;;;5074710;28;20444;-64
2021/04/24 00:36:37;;;;;;;13.27;4.47;;;;;;;;;;5073417;28;20436;-64
2021/04/24 00:39:04;;;;;;;9.10;4.17;;;;;;;;;;5074949;28;20409;-64
2021/04/24 00:41:30;;;;;;;10.10;4.30;;;;;;;;;;5073661;28;20487;-63
2021/04/24 00:43:56;;;;;;;6.53;3.97;;;;;;;;;;5075023;28;20852;-63
2021/04/24 00:46:22;;;;;;;8.73;4.10;;;;;;;;;;5073524;28;20897;-64
2021/04/24 00:48:48;;;;;;;8.20;4.53;;;;;;;;;;5057201;28;20409;-63
2021/04/24 00:51:14;;;;;;;6.40;3.50;;;;;;;;;;5073619;28;20424;-63
2021/04/24 00:53:40;;;;;;;6.03;4.13;;;;;;;;;;5074337;28;20470;-64
2021/04/24 00:56:06;;;;;;;10.00;4.83;;;;;;;;;;5072733;28;20486;-64
2021/04/24 00:58:34;;;;;;;12.10;3.97;;;;;;;;;;5056002;28;20409;-64
2021/04/24 01:01:00;;;;;;;6.53;4.50;;;;;;;;;;5074200;28;20429;-64
2021/04/24 01:03:26;;;;;;;6.50;4.17;;;;;;;;;;5072531;28;20428;-64
2021/04/24 01:05:52;;;;;;;6.30;4.63;;;;;;;;;;5074186;28;20911;-64
2021/04/24 01:08:19;;;;;;;7.50;3.73;;;;;;;;;;5072080;28;20490;-63
2021/04/24 01:10:45;;;;;;;9.10;4.27;;;;;;;;;;5074163;28;20457;-64
2021/04/24 01:13:11;;;;;;;10.13;4.53;;;;;;;;;;5073172;28;21015;-64
2021/04/24 01:15:38;;;;;;;5.07;3.77;;;;;;;;;;5074166;28;20425;-64
2021/04/24 01:18:08;;;;;;;10.00;3.80;;;;;;;;;;5073008;28;20429;-63
2021/04/24 01:20:35;;;;;;;6.30;3.87;;;;;;;;;;5073393;28;20437;-63
2021/04/24 01:23:01;;;;;;;7.07;4.10;;;;;;;;;;5064664;28;20462;-63
2021/04/24 01:25:27;;;;;;;12.30;5.07;;;;;;;;;;5073928;28;20793;-63
2021/04/24 01:27:54;;;;;;;9.53;5.17;;;;;;;;;;5072446;28;20437;-64
2021/04/24 01:30:23;;;;;;;18.83;4.63;;;;;;;;;;5073726;28;20476;-64
2021/04/24 01:32:49;;;;;;;10.13;4.83;;;;;;;;;;5053557;28;20930;-64
2021/04/24 01:35:17;;;;;;;8.83;4.20;;;;;;;;;;5073563;28;20417;-64
2021/04/24 01:37:43;;;;;;;7.30;4.50;;;;;;;;;;5072161;28;20421;-64
2021/04/24 01:40:11;;;;;;;7.93;3.73;;;;;;;;;;5073231;28;20500;-64
2021/04/24 01:42:37;;;;;;;7.80;4.60;;;;;;;;;;5054544;28;20436;-64
2021/04/24 01:45:07;;;;;;;4.87;4.03;;;;;;;;;;5073106;28;20500;-64
2021/04/24 01:47:33;;;;;;;9.57;4.93;;;;;;;;;;5072460;28;20427;-64
2021/04/24 01:49:59;;;;;;;9.13;4.40;;;;;;;;;;5073406;28;20458;-64
2021/04/24 01:52:31;;;;;;;10.83;6.80;;;;;;;;;;5070538;28;20920;-64
2021/04/24 01:54:57;;;;;;;6.73;4.47;;;;;;;;;;5073097;28;20409;-64
2021/04/24 01:57:23;;;;;;;5.40;3.70;;;;;;;;;;5071046;28;20417;-64
2021/04/24 01:59:49;;;;;;;6.23;4.53;;;;;;;;;;5073361;28;20760;-64
2021/04/24 02:02:15;;;;;;;6.40;3.90;;;;;;;;;;5070556;28;20421;-64
2021/04/24 02:04:41;;;;;;;12.00;4.67;;;;;;;;;;5073065;28;20393;-64
2021/04/24 02:07:10;;;;;;;6.10;3.63;;;;;;;;;;5072163;28;20400;-64
2021/04/24 02:09:36;;;;;;;10.63;5.27;;;;;;;;;;5064608;28;20401;-64
2021/04/24 02:12:08;;;;;;;6.23;4.00;;;;;;;;;;5070040;28;20803;-64
2021/04/24 02:14:45;;;;;;;7.03;4.80;;;;;;;;;;5072454;28;20492;-64
2021/04/24 02:17:41;;;;;;;4.13;3.23;;;;;;;;;;5071855;28;20416;-64
2021/04/24 02:20:07;;;;;;;9.70;4.80;;;;;;;;;;5055738;28;20445;-64
2021/04/24 02:22:33;;;;;;;8.73;4.10;;;;;;;;;;5067828;28;20557;-64
2021/04/24 02:25:00;;;;;;;7.07;4.03;;;;;;;;;;5072615;28;20401;-64
2021/04/24 02:27:27;;;;;;;11.87;4.83;;;;;;;;;;5069814;28;20405;-64
2021/04/24 02:29:54;;;;;;;7.33;4.27;;;;;;;;;;5066033;28;20405;-64
2021/04/24 02:32:22;;;;;;;7.87;3.80;;;;;;;;;;5071505;28;20398;-64
2021/04/24 02:34:48;;;;;;;8.40;4.43;;;;;;;;;;5065035;28;20436;-64
2021/04/24 02:37:15;;;;;;;6.90;4.40;;;;;;;;;;5072433;28;20412;-64
2021/04/24 02:39:43;;;;;;;10.90;4.53;;;;;;;;;;5071376;28;20436;-65
2021/04/24 02:42:10;;;;;;;6.80;3.90;;;;;;;;;;5072294;28;20411;-64
2021/04/24 02:44:36;;;;;;;9.50;3.27;;;;;;;;;;5070032;28;20433;-64
2021/04/24 02:47:04;;;;;;;9.47;5.00;;;;;;;;;;5072044;28;20921;-64
2021/04/24 02:49:30;;;;;;;7.30;3.50;;;;;;;;;;5071486;28;20428;-64
2021/04/24 02:51:56;;;;;;;7.20;4.27;;;;;;;;;;5072367;28;20436;-64
2021/04/24 02:54:23;;;;;;;9.10;4.07;;;;;;;;;;5071432;28;20460;-64
2021/04/24 02:56:49;;;;;;;8.47;4.20;;;;;;;;;;5072208;28;20435;-64
2021/04/24 02:59:16;;;;;;;8.40;4.63;;;;;;;;;;5062924;28;20475;-64
2021/04/24 03:01:42;;;;;;;7.73;4.97;;;;;;;;;;5072179;28;20504;-64
2021/04/24 03:04:09;;;;;;;8.67;4.60;;;;;;;;;;5065522;28;20421;-64
2021/04/24 03:06:35;;;;;;;6.13;4.20;;;;;;;;;;5072407;28;20478;-64
2021/04/24 03:09:01;;;;;;;14.83;4.20;;;;;;;;;;5065417;28;20563;-64
2021/04/24 03:11:28;;;;;;;10.20;4.57;;;;;;;;;;5075389;28;20456;-64
2021/04/24 03:13:54;;;;;;;17.37;5.07;;;;;;;;;;5068177;28;20451;-64
2021/04/24 03:16:20;;;;;;;13.43;4.20;;;;;;;;;;5074421;28;20865;-64
2021/04/24 03:18:46;;;;;;;9.00;4.83;;;;;;;;;;5074956;28;20433;-64
2021/04/24 03:21:12;;;;;;;6.40;4.00;;;;;;;;;;5076016;28;20421;-64
2021/04/24 03:23:38;;;;;;;12.30;5.37;;;;;;;;;;5074709;28;20433;-64
2021/04/24 03:26:04;;;;;;;9.43;5.13;;;;;;;;;;5075715;28;20424;-64
2021/04/24 03:28:30;;;;;;;6.70;5.23;;;;;;;;;;5067647;28;20441;-64
2021/04/24 03:30:56;;;;;;;11.27;5.53;;;;;;;;;;5073986;28;20849;-64
2021/04/24 03:33:22;;;;;;;9.63;4.50;;;;;;;;;;5073843;28;20798;-64
2021/04/24 03:35:48;;;;;;;13.13;4.67;;;;;;;;;;5075560;28;20420;-64
2021/04/24 03:38:14;;;;;;;13.83;5.40;;;;;;;;;;5074728;28;20425;-64
2021/04/24 03:40:40;;;;;;;6.67;4.30;;;;;;;;;;5075111;28;20929;-64
2021/04/24 03:43:06;;;;;;;8.33;4.63;;;;;;;;;;5075584;28;20444;-64
2021/04/24 03:45:33;;;;;;;15.23;5.07;;;;;;;;;;5071889;28;20850;-64
2021/04/24 03:48:00;;;;;;;7.70;4.47;;;;;;;;;;5075485;28;20421;-64
2021/04/24 03:50:26;;;;;;;6.43;4.13;;;;;;;;;;5074603;28;20872;-64
2021/04/24 03:52:53;;;;;;;13.83;5.10;;;;;;;;;;5074545;28;20586;-64
2021/04/24 03:55:20;;;;;;;5.80;4.27;;;;;;;;;;5072905;28;20476;-64
2021/04/24 03:57:46;;;;;;;7.10;4.33;;;;;;;;;;5075835;28;20424;-64
2021/04/24 04:00:13;;;;;;;6.60;3.77;;;;;;;;;;5075085;28;20432;-64
2021/04/24 04:02:45;;;;;;;6.93;3.63;;;;;;;;;;5072606;28;20466;-64
2021/04/24 04:05:12;;;;;;;19.03;5.03;;;;;;;;;;5068564;28;20428;-64
2021/04/24 04:07:38;;;;;;;10.83;5.23;;;;;;;;;;5066093;28;20870;-64
2021/04/24 04:10:04;;;;;;;12.27;4.83;;;;;;;;;;5075028;28;20433;-64
2021/04/24 04:12:30;;;;;;;8.57;4.53;;;;;;;;;;5073938;28;20412;-64
2021/04/24 04:14:56;;;;;;;7.83;4.80;;;;;;;;;;5073795;28;20555;-64
2021/04/24 04:17:22;;;;;;;8.57;4.47;;;;;;;;;;5074664;28;20499;-64
2021/04/24 04:19:48;;;;;;;6.97;4.00;;;;;;;;;;5073586;28;20918;-64
2021/04/24 04:22:14;;;;;;;8.97;4.67;;;;;;;;;;5073417;28;20421;-64
2021/04/24 04:24:40;;;;;;;9.00;4.50;;;;;;;;;;5073948;28;20429;-64
2021/04/24 04:27:06;;;;;;;6.97;4.80;;;;;;;;;;5074532;28;20401;-65
2021/04/24 04:29:35;;;;;;;11.17;4.93;;;;;;;;;;5071796;28;20463;-64
2021/04/24 04:32:01;;;;;;;8.70;4.57;;;;;;;;;;5074751;28;20440;-65
2021/04/24 04:34:27;;;;;;;7.83;4.67;;;;;;;;;;5073054;28;20467;-64
2021/04/24 04:36:53;;;;;;;10.33;4.77;;;;;;;;;;5074951;28;20790;-64
2021/04/24 04:39:19;;;;;;;10.30;4.83;;;;;;;;;;5073346;28;20425;-64
2021/04/24 04:41:45;;;;;;;12.10;4.27;;;;;;;;;;5074274;28;20437;-64
2021/04/24 04:44:11;;;;;;;5.10;3.63;;;;;;;;;;5073233;28;20448;-64
2021/04/24 04:46:37;;;;;;;9.80;4.10;;;;;;;;;;5074274;28;20417;-65
2021/04/24 04:49:03;;;;;;;7.80;3.70;;;;;;;;;;5073645;28;20891;-64
2021/04/24 04:51:30;;;;;;;12.90;4.63;;;;;;;;;;5074597;28;20449;-64
2021/04/24 04:53:56;;;;;;;5.33;3.63;;;;;;;;;;5073471;28;20659;-63
2021/04/24 04:56:22;;;;;;;9.07;5.57;;;;;;;;;;5074391;28;20459;-63
2021/04/24 04:58:48;;;;;;;14.47;5.40;;;;;;;;;;5073101;28;20898;-63
2021/04/24 05:01:14;;;;;;;6.57;4.00;;;;;;;;;;5072991;28;20527;-64
2021/04/24 05:03:40;;;;;;;12.87;4.20;;;;;;;;;;5073396;28;20426;-64
2021/04/24 05:06:06;;;;;;;12.43;4.57;;;;;;;;;;5073794;28;20448;-64
2021/04/24 05:08:35;;;;;;;7.33;4.37;;;;;;;;;;5072839;28;20417;-64
2021/04/24 05:11:02;;;;;;;8.07;4.60;;;;;;;;;;5073993;28;20997;-64
2021/04/24 05:13:28;;;;;;;18.73;4.23;;;;;;;;;;5072701;28;20476;-64
2021/04/24 05:15:54;;;;;;;6.70;4.70;;;;;;;;;;5073595;28;20406;-65
2021/04/24 05:18:20;;;;;;;8.30;4.73;;;;;;;;;;5073807;28;20407;-64
2021/04/24 05:20:47;;;;;;;9.40;5.20;;;;;;;;;;5068922;28;20524;-64
2021/04/24 05:23:13;;;;;;;14.40;5.33;;;;;;;;;;5074008;28;20417;-64
2021/04/24 05:25:39;;;;;;;7.80;5.07;;;;;;;;;;5072695;28;20786;-64
2021/04/24 05:28:05;;;;;;;7.07;4.43;;;;;;;;;;5073577;28;20405;-64
2021/04/24 05:30:31;;;;;;;10.87;4.87;;;;;;;;;;5068867;28;20479;-64
2021/04/24 05:32:58;;;;;;;6.47;4.27;;;;;;;;;;5072184;28;20491;-64
2021/04/24 05:35:25;;;;;;;11.23;5.47;;;;;;;;;;5070439;28;20472;-64
2021/04/24 05:37:51;;;;;;;14.63;5.10;;;;;;;;;;5073411;28;20405;-64
2021/04/24 05:40:17;;;;;;;9.90;5.50;;;;;;;;;;5072368;28;20461;-65
2021/04/24 05:42:43;;;;;;;9.17;4.60;;;;;;;;;;5073178;28;20550;-64
2021/04/24 05:45:10;;;;;;;12.00;5.40;;;;;;;;;;5068874;28;20913;-64
2021/04/24 05:47:44;;;;;;;7.30;4.27;;;;;;;;;;5073011;28;20905;-65
2021/04/24 05:50:11;;;;;;;8.40;4.27;;;;;;;;;;5072019;28;20919;-64
2021/04/24 05:52:38;;;;;;;7.30;3.87;;;;;;;;;;5072857;28;20408;-64
2021/04/24 05:55:04;;;;;;;9.33;5.77;;;;;;;;;;5072014;28;20459;-64
2021/04/24 05:57:31;;;;;;;8.70;5.20;;;;;;;;;;5073465;28;20769;-64
2021/04/24 05:59:57;;;;;;;9.90;4.10;;;;;;;;;;5071972;28;20546;-64
2021/04/24 06:02:23;;;;;;;9.70;4.17;;;;;;;;;;5073247;28;20406;-64
2021/04/24 06:04:49;;;;;;;9.57;4.33;;;;;;;;;;5071798;28;20917;-64
2021/04/24 06:07:16;;;;;;;14.37;3.87;;;;;;;;;;5071030;28;20437;-64
2021/04/24 06:09:41;;;;;;;5.30;3.63;;;;;;;;;;5071252;28;20432;-64
2021/04/24 06:12:08;;;;;;;10.27;3.80;;;;;;;;;;5073135;28;20428;-64
2021/04/24 06:14:34;;;;;;;5.70;3.23;;;;;;;;;;5071872;28;20827;-64
2021/04/24 06:17:01;;;;;;;9.67;3.63;;;;;;;;;;5072897;28;20863;-64
2021/04/24 06:19:27;;;;;;;4.37;3.10;;;;;;;;;;5071902;28;20433;-64
2021/04/24 06:21:55;;;;;;;8.40;3.80;;;;;;;;;;5072860;28;20807;-64
2021/04/24 06:24:21;;;;;;;13.27;3.77;;;;;;;;;;5071794;28;20917;-64
2021/04/24 06:26:47;;;;;;;7.87;3.90;;;;;;;;;;5072831;28;20421;-64
2021/04/24 06:29:13;;;;;;;7.60;3.37;;;;;;;;;;5071740;28;20528;-64
2021/04/24 06:31:40;;;;;;;7.40;3.60;;;;;;;;;;5072914;28;20531;-64
2021/04/24 06:34:06;;;;;;;7.43;3.70;;;;;;;;;;5071803;28;20980;-64
2021/04/24 06:36:32;;;;;;;11.57;4.70;;;;;;;;;;5072617;28;20416;-64
2021/04/24 06:38:58;;;;;;;9.50;4.03;;;;;;;;;;5071154;28;20773;-64
2021/04/24 06:41:26;;;;;;;7.93;4.67;;;;;;;;;;5070360;28;20457;-65
2021/04/24 06:43:52;;;;;;;6.03;3.80;;;;;;;;;;5071918;28;20440;-64
2021/04/24 06:46:18;;;;;;;6.87;4.40;;;;;;;;;;5072443;28;20409;-64
2021/04/24 06:48:44;;;;;;;8.13;3.80;;;;;;;;;;5073111;28;20408;-64
2021/04/24 06:51:10;;;;;;;8.23;4.67;;;;;;;;;;5068642;28;20441;-64
2021/04/24 06:53:36;;;;;;;6.67;4.20;;;;;;;;;;5065506;28;20962;-64
2021/04/24 06:56:02;;;;;;;8.20;4.60;;;;;;;;;;5069695;28;20450;-64
2021/04/24 06:58:28;;;;;;;5.30;3.47;;;;;;;;;;5071734;28;20503;-64
2021/04/24 07:00:55;;;;;;;10.90;4.87;;;;;;;;;;5072745;28;20523;-63
2021/04/24 07:03:21;;;;;;;9.00;4.87;;;;;;;;;;5075349;28;20420;-66
2021/04/24 07:05:47;;;;;;;6.43;4.03;;;;;;;;;;5063487;28;20425;-64
2021/04/24 07:08:13;;;;;;;8.77;4.83;;;;;;;;;;5074954;28;20994;-65
2021/04/24 07:10:39;;;;;;;8.80;5.20;;;;;;;;;;5075715;28;20452;-64
2021/04/24 07:13:05;;;;;;;9.63;5.00;;;;;;;;;;5076743;28;20457;-64
2021/04/24 07:15:31;;;;;;;9.20;4.50;;;;;;;;;;5073370;28;20432;-64
2021/04/24 07:17:57;;;;;;;16.47;5.23;;;;;;;;;;5072835;28;20464;-63
2021/04/24 07:20:23;;;;;;;9.07;4.80;;;;;;;;;;5072275;28;20960;-64
2021/04/24 07:22:50;;;;;;;9.57;4.37;;;;;;;;;;5072608;28;20409;-64
2021/04/24 07:25:16;;;;;;;8.50;5.27;;;;;;;;;;5071089;28;20466;-64
2021/04/24 07:27:42;;;;;;;11.90;5.87;;;;;;;;;;5072931;28;20471;-62
2021/04/24 07:30:09;;;;;;;12.17;5.50;;;;;;;;;;5070383;28;20504;-64
2021/04/24 07:32:35;;;;;;;6.00;4.03;;;;;;;;;;5071825;28;20462;-64
2021/04/24 07:35:01;;;;;;;11.30;5.20;;;;;;;;;;5072117;28;20468;-63
2021/04/24 07:37:28;;;;;;;9.00;4.40;;;;;;;;;;5073564;28;20413;-63
2021/04/24 07:39:54;;;;;;;14.50;6.23;;;;;;;;;;5071350;28;20420;-64
2021/04/24 07:42:20;;;;;;;7.03;4.60;;;;;;;;;;5073721;28;20413;-64
2021/04/24 07:44:46;;;;;;;8.80;5.80;;;;;;;;;;5074119;28;20413;-64
2021/04/24 07:47:12;;;;;;;8.23;4.70;;;;;;;;;;5072473;28;20494;-64
2021/04/24 07:49:39;;;;;;;10.63;5.90;;;;;;;;;;5074618;28;20413;-63
2021/04/24 07:52:06;;;;;;;12.63;4.60;;;;;;;;;;5071022;28;20928;-65
2021/04/24 07:54:40;;;;;;;7.43;4.80;;;;;;;;;;5075394;28;20457;-66
2021/04/24 07:57:06;;;;;;;8.00;4.90;;;;;;;;;;5076637;28;20451;-66
2021/04/24 07:59:33;;;;;;;10.57;4.80;;;;;;;;;;5076175;28;20464;-66
2021/04/24 08:01:59;;;;;;;10.43;5.37;;;;;;;;;;5074666;28;20800;-66
2021/04/24 08:04:25;;;;;;;10.37;4.80;;;;;;;;;;5078194;28;20413;-66
2021/04/24 08:06:51;;;;;;;12.03;8.30;;;;;;;;;;5074931;28;20933;-65
2021/04/24 08:09:17;;;;;;;9.33;5.40;;;;;;;;;;5076692;28;20427;-65
2021/04/24 08:11:43;;;;;;;8.17;5.30;;;;;;;;;;5065983;28;20456;-65
2021/04/24 08:14:09;;;;;;;7.47;5.37;;;;;;;;;;5057735;28;20550;-65
2021/04/24 08:16:35;;;;;;;10.70;6.33;;;;;;;;;;5066205;28;20692;-65
2021/04/24 08:19:01;;;;;;;6.90;4.90;;;;;;;;;;5077194;28;20413;-65
2021/04/24 08:21:28;;;;;;;8.13;5.60;;;;;;;;;;5068335;28;20442;-65
2021/04/24 08:23:59;;;;;;;11.37;5.57;;;;;;;;;;5056161;28;20409;-65
2021/04/24 08:26:26;;;;;;;11.23;5.50;;;;;;;;;;5056013;28;20766;-65
2021/04/24 08:28:52;;;;;;;9.47;5.97;;;;;;;;;;5055802;28;20406;-65
2021/04/24 08:31:18;;;;;;;9.80;6.13;;;;;;;;;;5061567;28;20499;-66
2021/04/24 08:33:45;;;;;;;9.17;6.13;;;;;;;;;;5075480;28;20475;-65
2021/04/24 08:36:11;;;;;;;11.93;6.30;;;;;;;;;;5074834;28;20508;-66
2021/04/24 08:38:37;;;;;;;9.93;6.03;;;;;;;;;;5075724;28;20739;-70
2021/04/24 08:41:03;;;;;;;12.90;5.67;;;;;;;;;;5071513;28;20457;-65
2021/04/24 08:43:30;;;;;;;9.97;5.70;;;;;;;;;;5056258;28;20475;-65
2021/04/24 08:45:57;;;;;;;10.20;6.43;;;;;;;;;;5058180;28;20429;-65
2021/04/24 08:48:23;;;;;;;11.20;6.33;;;;;;;;;;5075977;28;20440;-65
2021/04/24 08:50:49;;;;;;;15.17;6.90;;;;;;;;;;5071488;28;20961;-64
2021/04/24 08:53:18;;;;;;;10.83;6.43;;;;;;;;;;5055756;28;20458;-65
2021/04/24 08:55:44;;;;;;;8.43;5.90;;;;;;;;;;5055675;28;20405;-65
2021/04/24 08:58:11;;;;;;;12.30;6.63;;;;;;;;;;5076312;28;20488;-65
2021/04/24 09:00:38;;;;;;;8.60;6.17;;;;;;;;;;5076559;28;20475;-65
2021/04/24 09:03:16;;;;;;;13.40;6.33;;;;;;;;;;5075685;28;20421;-65
2021/04/24 09:05:42;;;;;;;8.47;6.17;;;;;;;;;;5075164;28;20401;-65
2021/04/24 09:08:09;;;;;;;8.40;4.83;;;;;;;;;;5055305;28;20432;-65
2021/04/24 09:10:38;;;;;;;11.17;6.27;;;;;;;;;;5055595;28;20505;-65
2021/04/24 09:13:05;;;;;;;9.60;6.00;;;;;;;;;;5074796;28;20512;-65
2021/04/24 09:15:32;;;;;;;11.70;6.10;;;;;;;;;;5075489;28;20454;-65
2021/04/24 09:18:07;;;;;;;10.17;6.00;;;;;;;;;;5074094;28;20425;-65
2021/04/24 09:20:43;;;;;;;7.50;5.80;;;;;;;;;;5075222;28;20448;-65
2021/04/24 09:23:10;;;;;;;9.97;5.97;;;;;;;;;;5074045;28;20866;-65
2021/04/24 09:25:40;;;;;;;9.77;5.70;;;;;;;;;;5074177;28;20795;-65
2021/04/24 09:28:08;;;;;;;10.37;5.60;;;;;;;;;;5055759;28;20433;-64
2021/04/24 09:30:36;;;;;;;14.07;7.53;;;;;;;;;;5054758;28;20529;-65
2021/04/24 09:33:03;;;;;;;12.40;5.70;;;;;;;;;;5072688;28;20792;-65
2021/04/24 09:35:37;;;;;;;8.93;5.80;;;;;;;;;;5074583;28;20401;-65
2021/04/24 09:38:03;;;;;;;8.57;5.60;;;;;;;;;;5073816;28;20425;-65
2021/04/24 09:40:30;;;;;;;9.83;6.10;;;;;;;;;;5074590;28;20445;-65
2021/04/24 09:43:22;;;;;;;12.03;5.67;;;;;;;;;;5073751;28;20479;-65
2021/04/24 09:45:48;;;;;;;15.23;6.87;;;;;;;;;;5072582;28;20516;-65
2021/04/24 09:48:25;;;;;;;12.73;6.60;;;;;;;;;;5072735;28;20427;-65
2021/04/24 09:50:51;;;;;;;12.90;6.33;;;;;;;;;;5074465;28;20425;-65
2021/04/24 09:53:23;;;;;;;13.47;6.83;;;;;;;;;;5073172;28;20519;-65
2021/04/24 09:55:50;;;;;;;12.20;5.40;;;;;;;;;;5074716;28;20495;-65
2021/04/24 09:58:33;;;;;;;12.93;5.77;;;;;;;;;;5058781;28;20440;-65
2021/04/24 10:01:17;;;;;;;11.20;6.70;;;;;;;;;;5053887;28;20433;-65
2021/04/24 10:03:43;;;;;;;9.33;6.03;;;;;;;;;;5067369;28;20428;-66
2021/04/24 10:06:29;;;;;;;9.63;6.13;;;;;;;;;;5074103;28;20425;-65
2021/04/24 10:09:17;;;;;;;9.87;5.77;;;;;;;;;;5072989;28;20486;-65
2021/04/24 10:11:45;;;;;;;11.60;6.47;;;;;;;;;;5074127;28;20439;-65
2021/04/24 10:14:11;;;;;;;11.60;5.80;;;;;;;;;;5072803;28;20461;-65
2021/04/24 10:16:39;;;;;;;7.60;5.50;;;;;;;;;;5073647;28;20397;-65
2021/04/24 10:19:10;;;;;;;10.70;5.60;;;;;;;;;;5071986;28;20421;-65
2021/04/24 10:21:36;;;;;;;9.90;6.20;;;;;;;;;;5073871;28;20467;-66
2021/04/24 10:24:03;;;;;;;12.93;6.50;;;;;;;;;;5072911;28;20433;-65
2021/04/24 10:26:29;;;;;;;9.63;6.10;;;;;;;;;;5073674;28;20401;-65
2021/04/24 10:28:56;;;;;;;10.50;6.83;;;;;;;;;;5064747;28;20433;-65
2021/04/24 10:31:22;;;;;;;12.17;6.30;;;;;;;;;;5053833;28;20528;-65
2021/04/24 10:33:49;;;;;;;10.93;6.63;;;;;;;;;;5060260;28;20471;-66
2021/04/24 10:36:18;;;;;;;10.63;6.13;;;;;;;;;;5073602;28;20466;-65
2021/04/24 10:38:48;;;;;;;11.10;5.57;;;;;;;;;;5072009;28;20425;-66
2021/04/24 10:41:15;;;;;;;10.83;6.90;;;;;;;;;;5072831;28;20449;-66
2021/04/24 10:43:41;;;;;;;8.43;5.80;;;;;;;;;;5062116;28;20433;-66
2021/04/24 10:46:23;;;;;;;10.77;6.80;;;;;;;;;;5053158;28;20890;-66
2021/04/24 10:48:49;;;;;;;9.37;5.57;;;;;;;;;;5063322;28;20982;-65
2021/04/24 10:51:15;;;;;;;9.50;6.33;;;;;;;;;;5072829;28;20432;-66
2021/04/24 10:53:41;;;;;;;11.43;6.30;;;;;;;;;;5071922;28;20501;-66
2021/04/24 10:56:07;;;;;;;11.00;6.60;;;;;;;;;;5071713;28;20424;-65
2021/04/24 10:58:33;;;;;;;13.13;6.67;;;;;;;;;;5070853;28;20421;-65
2021/04/24 11:01:00;;;;;;;10.10;6.60;;;;;;;;;;5072659;28;20510;-65
2021/04/24 11:03:37;;;;;;;9.40;5.83;;;;;;;;;;5064726;28;20425;-65
2021/04/24 11:06:10;;;;;;;9.17;7.17;;;;;;;;;;5052560;28;20402;-65
2021/04/24 11:08:37;;;;;;;8.57;6.97;;;;;;;;;;5052387;28;20433;-65
2021/04/24 11:11:04;;;;;;;9.00;6.20;;;;;;;;;;5034645;28;20430;-65
2021/04/24 11:13:56;;;;;;;13.00;6.60;;;;;;;;;;5059652;28;20460;-65
2021/04/24 11:16:31;;;;;;;8.50;5.93;;;;;;;;;;5070655;28;20416;-65
2021/04/24 11:18:57;;;;;;;8.37;5.70;;;;;;;;;;5061867;28;20511;-65
2021/04/24 11:21:23;;;;;;;11.60;5.60;;;;;;;;;;5053499;28;20414;-66
2021/04/24 11:23:49;;;;;;;12.07;6.50;;;;;;;;;;5063002;28;20469;-65
2021/04/24 11:26:21;;;;;;;10.93;6.90;;;;;;;;;;5054769;28;20924;-66
2021/04/24 11:29:01;;;;;;;12.83;6.70;;;;;;;;;;5062348;28;20798;-65
2021/04/24 11:31:45;;;;;;;10.80;6.13;;;;;;;;;;5057785;28;20429;-65
2021/04/24 11:34:23;;;;;;;16.23;6.70;;;;;;;;;;5068817;28;20533;-65
2021/04/24 11:37:09;;;;;;;12.00;6.83;;;;;;;;;;5076836;28;20400;-65
2021/04/24 11:39:35;;;;;;;10.33;7.03;;;;;;;;;;5060785;28;20422;-66
2021/04/24 11:42:21;;;;;;;11.90;6.30;;;;;;;;;;5038758;28;20446;-65
2021/04/24 11:44:49;;;;;;;11.80;6.83;;;;;;;;;;5073168;28;20428;-65
2021/04/24 11:47:35;;;;;;;12.43;6.97;;;;;;;;;;5076813;28;20552;-65
2021/04/24 11:50:01;;;;;;;9.60;7.20;;;;;;;;;;5057174;28;20946;-65
2021/04/24 11:52:27;;;;;;;11.20;6.70;;;;;;;;;;5057158;28;20901;-65
2021/04/24 11:54:53;;;;;;;10.63;6.03;;;;;;;;;;5056679;28;20906;-65
2021/04/24 11:57:20;;;;;;;12.20;7.57;;;;;;;;;;5056864;28;20890;-65
2021/04/24 11:59:49;;;;;;;14.10;7.27;;;;;;;;;;5072458;28;20424;-65
2021/04/24 12:02:19;;;;;;;9.10;7.40;;;;;;;;;;5075820;28;20405;-65
2021/04/24 12:04:46;;;;;;;10.60;6.40;;;;;;;;;;5060264;28;20422;-65
2021/04/24 12:07:13;;;;;;;10.37;6.70;;;;;;;;;;5057097;28;20412;-65
2021/04/24 12:09:53;;;;;;;10.67;5.80;;;;;;;;;;5069870;28;20420;-65
2021/04/24 12:12:30;;;;;;;9.27;5.20;;;;;;;;;;5056458;28;20412;-65
2021/04/24 12:15:02;;;;;;;11.30;5.77;;;;;;;;;;5056467;28;20549;-65
2021/04/24 12:17:28;;;;;;;11.00;6.00;;;;;;;;;;5056722;28;20756;-65
2021/04/24 12:19:54;;;;;;;8.43;5.53;;;;;;;;;;5072734;28;20499;-65
2021/04/24 12:22:21;;;;;;;12.70;7.00;;;;;;;;;;5076665;28;20406;-65
2021/04/24 12:24:59;;;;;;;11.30;5.20;;;;;;;;;;5074348;28;20425;-65
2021/04/24 12:27:29;;;;;;;9.80;6.20;;;;;;;;;;5075570;28;20484;-65
2021/04/24 12:29:55;;;;;;;7.83;5.50;;;;;;;;;;5074333;28;20902;-66
2021/04/24 12:32:23;;;;;;;13.37;5.93;;;;;;;;;;5075864;28;20401;-64
2021/04/24 12:34:49;;;;;;;6.83;3.90;;;;;;;;;;5073979;28;20544;-66
2021/04/24 12:37:20;;;;;;;8.17;4.00;;;;;;;;;;5072852;28;20980;-65
2021/04/24 12:39:46;;;;;;;7.73;4.27;;;;;;;;;;5073717;28;20475;-65
2021/04/24 12:42:13;;;;;;;8.20;3.80;;;;;;;;;;5074773;28;20401;-64
2021/04/24 12:44:39;;;;;;;8.73;4.43;;;;;;;;;;5074325;28;20494;-64
2021/04/24 12:47:06;;;;;;;7.03;4.77;;;;;;;;;;5075282;28;20405;-63
2021/04/24 12:49:32;;;;;;;9.70;6.00;;;;;;;;;;5062311;28;20445;-64
2021/04/24 12:52:09;;;;;;;8.20;4.80;;;;;;;;;;5054572;28;20465;-64
2021/04/24 12:54:35;;;;;;;9.57;4.80;;;;;;;;;;5066887;28;20476;-64
2021/04/24 12:57:21;;;;;;;9.80;5.43;;;;;;;;;;5075080;28;20401;-64
2021/04/24 13:00:00;;;;;;;8.90;5.17;;;;;;;;;;5073263;28;21047;-64
2021/04/24 13:02:32;;;;;;;7.60;5.30;;;;;;;;;;5075078;28;20481;-64
2021/04/24 13:04:59;;;;;;;7.20;4.50;;;;;;;;;;5059103;28;20440;-64
2021/04/24 13:07:25;;;;;;;10.97;5.57;;;;;;;;;;5054960;28;20757;-64
2021/04/24 13:09:51;;;;;;;7.40;5.30;;;;;;;;;;5067895;28;20972;-64
2021/04/24 13:12:17;;;;;;;8.57;5.20;;;;;;;;;;5071667;28;20445;-64
2021/04/24 13:14:45;;;;;;;8.30;6.20;;;;;;;;;;5061117;28;20974;-64
2021/04/24 13:17:14;;;;;;;8.67;5.57;;;;;;;;;;5054643;28;20432;-64
2021/04/24 13:19:52;;;;;;;7.87;5.07;;;;;;;;;;5065793;28;20474;-64
2021/04/24 13:22:30;;;;;;;8.60;5.23;;;;;;;;;;5056340;28;20416;-64
2021/04/24 13:24:56;;;;;;;7.87;5.60;;;;;;;;;;5073168;28;20985;-64
2021/04/24 13:27:26;;;;;;;8.90;5.80;;;;;;;;;;5074197;28;20470;-65
2021/04/24 13:29:52;;;;;;;7.33;5.10;;;;;;;;;;5060484;28;20510;-64
2021/04/24 13:32:18;;;;;;;10.63;4.80;;;;;;;;;;5054332;28;20402;-64
2021/04/24 13:34:46;;;;;;;7.53;4.70;;;;;;;;;;5061537;28;20973;-65
2021/04/24 13:37:26;;;;;;;7.60;4.90;;;;;;;;;;5074321;28;20401;-64
2021/04/24 13:40:00;;;;;;;6.40;4.50;;;;;;;;;;5072946;28;20913;-65
2021/04/24 13:42:27;;;;;;;12.50;4.77;;;;;;;;;;5074045;28;20374;-63
2021/04/24 13:45:14;;;;;;;8.53;5.53;;;;;;;;;;5071351;28;20917;-64
2021/04/24 13:47:58;;;;;;;6.13;4.57;;;;;;;;;;5073730;28;20468;-65
2021/04/24 13:50:25;;;;;;;6.33;4.70;;;;;;;;;;5072834;28;20490;-64
2021/04/24 13:52:51;;;;;;;9.67;5.73;;;;;;;;;;5073697;28;20898;-64
2021/04/24 13:55:18;;;;;;;8.77;5.53;;;;;;;;;;5073197;28;20579;-64
2021/04/24 13:57:44;;;;;;;7.53;4.80;;;;;;;;;;5074429;28;20437;-64
2021/04/24 14:00:12;;;;;;;7.33;5.03;;;;;;;;;;5073033;28;20544;-65
2021/04/24 14:02:39;;;;;;;7.87;5.07;;;;;;;;;;5072337;28;20439;-64
2021/04/24 14:05:05;;;;;;;7.23;5.53;;;;;;;;;;5072433;28;20425;-64
2021/04/24 14:07:31;;;;;;;7.30;4.70;;;;;;;;;;5073596;28;20512;-64
2021/04/24 14:09:57;;;;;;;8.87;5.63;;;;;;;;;;5054743;28;20468;-64
2021/04/24 14:12:23;;;;;;;11.00;5.83;;;;;;;;;;5073411;28;20401;-64
2021/04/24 14:14:49;;;;;;;8.70;5.47;;;;;;;;;;5072611;28;20518;-64
2021/04/24 14:17:15;;;;;;;9.87;6.00;;;;;;;;;;5073260;28;20406;-66
2021/04/24 14:19:42;;;;;;;8.33;5.80;;;;;;;;;;5071881;28;20429;-64
2021/04/24 14:22:11;;;;;;;13.33;6.30;;;;;;;;;;5073454;28;20424;-64
2021/04/24 14:24:37;;;;;;;9.23;5.77;;;;;;;;;;5072255;28;20429;-64
2021/04/24 14:27:04;;;;;;;8.70;6.37;;;;;;;;;;5073419;28;20413;-64
2021/04/24 14:29:31;;;;;;;8.87;5.60;;;;;;;;;;5071906;28;20513;-64
2021/04/24 14:31:57;;;;;;;8.57;5.43;;;;;;;;;;5072929;28;20432;-63
2021/04/24 14:34:23;;;;;;;8.00;5.37;;;;;;;;;;5070274;28;20460;-64
2021/04/24 14:36:49;;;;;;;8.10;4.90;;;;;;;;;;5053034;28;20514;-64
2021/04/24 14:39:15;;;;;;;7.57;5.13;;;;;;;;;;5034789;28;20410;-64
2021/04/24 14:41:41;;;;;;;9.13;5.97;;;;;;;;;;5072561;28;20456;-65